Etusivu
METAR-TAF:

METAR-TAF

Lentoasemat :

Cascais, Portugali

Leveyspiiri: 38-43-32N, Pituuspiiri: 009-21-19W, korkeus merenpinnasta: 99 m

Tämänhetkinen sää

Tämä raportti tehtiin 44 minuuttia sitten, kello 15.30 UTC
Tuuli 9 kn lännestä/luoteesta
Lämpötila 23°C
Kosteus 50%
Ilmanpaine 1016 hPa
Näkyvyys 10 km tai enemmän
Muutamia pilviä 2000 ft:n korkeudessa

METAR: LPCS 241530Z 30009KT 9999 FEW020 23/12 Q1016

Aika: 17:14 (16:14 UTC)

Sääennuste

Tämä raportti tehtiin 2 tuntia ja 14 minuuttia sitten, kello 14.00 UTC
Ennuste voimassa 24. päivästä klo 15 UTC - 24. päivään klo 24 UTC
Tuuli 8 kn luoteesta
Näkyvyys 10 km tai enemmän
ei pilviä alle 1500 m:ssä eikä cumulonimbus-pilviä
Tulossa
24. päivästä klo 16 UTC - 24. päivään klo 18 UTC
Tuuli 13 kn pohjoisen/luoteesta
Tulossa
24. päivästä klo 21 UTC - 24. päivään klo 23 UTC
Tuuli 8 kn pohjoisen/luoteesta

TAF: LPCS 241400Z 2415/2424 32008KT CAVOK BECMG 2416/2418 34013KT BECMG 2421/2423 34008KT

Säähavainnot ja -ennusteet yli 4000 lentoasemalta (METAR- ja TAF-raportit).

Käytössä olevat sääasemat on merkitty karttaan keltaisilla ja punaisilla pisteillä.

Aseta hiiri pisteen päälle nähdäksesi sääaseman nimen.

Klikkaa sitten nähdäksesi säähavainnot ja -ennusteet.

Kartan vaihtaminen: klikkaa mustalla rastilla varustettuja vihreitä pisteitä, niin voit zoomata sisään; viivalla varustettua vihreää pistettä, niin voit zoomata ulos tai vihreitä nuolia, niin pääset viereisille kartoille.


METAR-TAF: